Time;durP1;ratioP1;P1;durP2;ratioP2;P2;SDS_P1;SDS_P2;PMS_P1;PMS_P2;Temp;Humidity;BMP_temperature;BMP_pressure;BME280_temperature;BME280_humidity;BME280_pressure;Samples;Min_cycle;Max_cycle;Signal;HPM_P1;HPM_P2
2021/01/07 08:51:18;;;;;;;10.83;3.10;;;19.70;47.00;;;;;;4216446;27;20411;-75
2021/01/07 08:53:50;;;;;;;23.83;3.83;;;19.30;38.80;;;;;;4192336;28;20484;-72
2021/01/07 08:56:10;;;;;;;10.85;2.88;;;18.70;38.30;;;;;;4192494;28;20462;-74
2021/01/07 08:58:31;;;;;;;15.10;2.40;;;18.30;38.40;;;;;;4192466;28;20439;-74
2021/01/07 09:00:54;;;;;;;8.45;2.05;;;18.40;40.50;;;;;;4192022;28;20543;-75
2021/01/07 09:03:17;;;;;;;7.70;1.90;;;18.70;41.30;;;;;;4192214;28;20403;-75
2021/01/07 09:05:38;;;;;;;5.28;1.48;;;18.90;41.30;;;;;;4188851;28;20454;-74
2021/01/07 09:08:09;;;;;;;5.25;1.50;;;19.00;41.80;;;;;;4176907;28;20754;-69
2021/01/07 09:10:32;;;;;;;5.15;1.25;;;19.20;42.90;;;;;;4187522;28;20420;-73
2021/01/07 09:12:53;;;;;;;5.30;1.70;;;19.20;42.60;;;;;;4190049;28;20400;-72
2021/01/07 09:15:25;;;;;;;4.77;1.40;;;19.30;42.70;;;;;;4189909;28;20790;-65
2021/01/07 09:17:47;;;;;;;4.33;1.37;;;19.30;43.10;;;;;;4191340;28;20427;-76
2021/01/07 09:20:10;;;;;;;5.25;1.30;;;19.40;43.30;;;;;;4191097;28;20431;-78
2021/01/07 09:22:31;;;;;;;7.53;1.33;;;;;;;;;;4191378;28;20404;-71
2021/01/07 09:24:55;;;;;;;5.07;0.85;;;19.70;68.10;;;;;;4189095;28;20051;-70
2021/01/07 09:27:17;;;;;;;9.15;1.33;;;19.80;43.90;;;;;;4196609;28;20178;-73
2021/01/07 09:29:42;;;;;;;9.18;1.60;;;19.60;44.10;;;;;;4195002;28;20048;-69
2021/01/07 09:32:03;;;;;;;4.13;1.20;;;19.50;43.00;;;;;;4191965;28;20083;-73
2021/01/07 09:34:26;;;;;;;6.20;1.73;;;19.40;43.20;;;;;;4193420;28;20523;-69
2021/01/07 09:36:46;;;;;;;3.97;1.40;;;19.40;44.10;;;;;;4193518;28;20059;-70
2021/01/07 09:39:07;;;;;;;4.68;1.10;;;19.40;42.80;;;;;;4191781;28;20521;-64
2021/01/07 09:41:31;;;;;;;3.67;1.02;;;19.40;43.00;;;;;;4206247;28;20503;-72
2021/01/07 09:43:54;;;;;;;4.72;1.17;;;19.40;43.10;;;;;;4191435;28;20083;-72
2021/01/07 09:46:17;;;;;;;5.97;1.10;;;19.40;43.00;;;;;;4191059;28;20056;-69
2021/01/07 09:48:40;;;;;;;3.72;1.15;;;19.40;43.00;;;;;;4192051;28;20059;-69
2021/01/07 09:51:03;;;;;;;7.00;1.02;;;19.40;43.30;;;;;;4205026;28;20106;-68
2021/01/07 09:53:23;;;;;;;3.53;1.00;;;19.40;43.70;;;;;;4196954;28;20051;-68
2021/01/07 09:55:43;;;;;;;3.63;0.70;;;19.50;43.70;;;;;;4199218;28;20047;-66
2021/01/07 09:58:07;;;;;;;1.88;0.85;;;19.50;43.50;;;;;;4198961;28;20812;-72
2021/01/07 10:00:28;;;;;;;3.90;0.77;;;19.60;43.10;;;;;;4199947;28;20423;-65
2021/01/07 10:02:51;;;;;;;1.20;0.60;;;19.60;43.00;;;;;;4184826;28;20423;-67
2021/01/07 10:05:14;;;;;;;1.40;0.60;;;19.60;42.60;;;;;;4185737;28;20087;-67
2021/01/07 10:07:34;;;;;;;2.53;0.80;;;19.60;43.10;;;;;;4186439;28;20055;-72
2021/01/07 10:09:55;;;;;;;1.63;0.70;;;19.70;43.30;;;;;;4179309;28;20056;-69
2021/01/07 10:12:15;;;;;;;1.77;0.70;;;19.70;43.30;;;;;;4192337;28;20490;-70
2021/01/07 10:14:36;;;;;;;2.70;0.70;;;19.70;43.40;;;;;;4179237;28;20133;-67
2021/01/07 10:16:59;;;;;;;1.83;0.60;;;19.80;43.40;;;;;;4184241;28;20101;-73
2021/01/07 10:19:24;;;;;;;3.33;0.70;;;19.80;43.50;;;;;;4188573;28;20055;-73
2021/01/07 10:21:54;;;;;;;1.83;0.60;;;19.90;43.50;;;;;;4186279;28;20205;-71
2021/01/07 10:24:17;;;;;;;2.17;0.60;;;19.90;43.90;;;;;;4181056;28;20056;-76
2021/01/07 10:26:37;;;;;;;2.42;0.75;;;19.90;42.90;;;;;;4181177;28;20056;-77
2021/01/07 10:28:58;;;;;;;0.80;0.53;;;19.90;43.50;;;;;;4194730;28;20151;-77
2021/01/07 10:31:20;;;;;;;0.85;0.40;;;20.00;42.80;;;;;;4193811;28;20079;-77
2021/01/07 10:33:44;;;;;;;2.22;0.70;;;20.10;42.70;;;;;;4181647;28;20091;-77
2021/01/07 10:36:05;;;;;;;0.70;0.50;;;20.20;42.70;;;;;;4181756;28;20561;-77
2021/01/07 10:38:28;;;;;;;4.57;0.68;;;20.20;42.60;;;;;;4181656;28;20122;-77
2021/01/07 10:40:52;;;;;;;1.85;0.60;;;20.20;42.40;;;;;;4181219;28;20387;-77
2021/01/07 10:43:13;;;;;;;1.58;0.57;;;20.30;42.30;;;;;;4181444;28;20060;-77
2021/01/07 10:45:34;;;;;;;1.95;0.50;;;20.30;42.20;;;;;;4180459;28;20055;-77
2021/01/07 10:48:00;;;;;;;0.98;0.47;;;20.40;42.20;;;;;;4181143;28;20098;-77
2021/01/07 10:50:27;;;;;;;2.13;0.50;;;20.40;42.10;;;;;;4191165;28;20584;-77
2021/01/07 10:53:10;;;;;;;1.00;0.60;;;20.50;42.10;;;;;;4197215;28;20055;-76
2021/01/07 10:55:32;;;;;;;1.27;0.50;;;20.50;42.00;;;;;;4182373;28;20107;-77
2021/01/07 10:58:32;;;;;;;0.60;0.40;;;20.50;41.90;;;;;;4182541;28;20443;-77
2021/01/07 11:01:11;;;;;;;0.43;0.40;;;20.60;41.80;;;;;;4182220;28;20048;-77
2021/01/07 11:04:08;;;;;;;0.43;0.40;;;20.60;41.70;;;;;;4181990;28;20110;-77
2021/01/07 11:06:33;;;;;;;1.73;0.60;;;20.70;41.70;;;;;;4197396;28;20206;-77
2021/01/07 11:08:59;;;;;;;0.90;0.47;;;20.80;41.80;;;;;;4197410;28;20493;-77
2021/01/07 11:11:23;;;;;;;1.45;0.52;;;20.80;41.80;;;;;;4197171;28;20094;-76
2021/01/07 11:13:52;;;;;;;1.15;0.45;;;20.80;41.80;;;;;;4196514;28;20415;-76
2021/01/07 11:16:21;;;;;;;1.15;0.40;;;20.90;41.80;;;;;;4181367;28;20615;-77
2021/01/07 11:18:48;;;;;;;0.50;0.30;;;20.90;41.80;;;;;;4194715;28;20067;-76
2021/01/07 11:21:13;;;;;;;1.60;0.82;;;21.00;41.80;;;;;;4197202;28;20101;-77
2021/01/07 11:23:35;;;;;;;0.73;0.40;;;21.00;41.80;;;;;;4197162;28;20101;-77
2021/01/07 11:25:59;;;;;;;1.75;0.47;;;21.00;41.80;;;;;;4197001;28;20078;-76
2021/01/07 11:28:20;;;;;;;1.05;0.40;;;21.10;42.40;;;;;;4180715;28;20056;-76
2021/01/07 11:30:43;;;;;;;0.45;0.30;;;21.10;41.80;;;;;;4165216;28;20139;-76
2021/01/07 11:33:05;;;;;;;1.70;0.50;;;21.10;41.80;;;;;;4180479;28;20095;-76
2021/01/07 11:35:25;;;;;;;;;;;21.10;41.80;;;;;;4165821;28;20120;-77
2021/01/07 11:38:01;;;;;;;0.82;0.40;;;21.10;42.40;;;;;;4179913;28;20063;-77
2021/01/07 11:40:28;;;;;;;0.88;0.40;;;21.20;42.40;;;;;;4180238;28;20139;-77
2021/01/07 11:43:53;;;;;;;0.60;0.47;;;21.20;41.80;;;;;;4193330;28;20063;-77
2021/01/07 11:46:17;;;;;;;0.90;0.68;;;21.20;41.80;;;;;;4180275;28;20586;-76
2021/01/07 11:48:44;;;;;;;1.10;0.40;;;21.20;41.80;;;;;;4179407;28;20135;-76
2021/01/07 11:51:10;;;;;;;0.57;0.40;;;21.30;41.90;;;;;;4164861;28;20536;-76
2021/01/07 11:53:34;;;;;;;0.95;0.35;;;21.30;41.80;;;;;;4180586;28;20083;-77
2021/01/07 11:55:59;;;;;;;1.45;0.40;;;21.30;41.90;;;;;;4181314;28;20060;-76
2021/01/07 11:58:28;;;;;;;0.85;0.45;;;21.30;41.80;;;;;;4181267;28;20060;-77
2021/01/07 12:00:52;;;;;;;1.27;0.50;;;21.30;41.80;;;;;;4165563;28;20592;-76
2021/01/07 12:03:15;;;;;;;1.13;0.40;;;21.30;41.80;;;;;;4181199;28;20056;-76
2021/01/07 12:05:39;;;;;;;0.63;0.28;;;21.30;41.80;;;;;;4180664;28;20180;-77
2021/01/07 12:08:16;;;;;;;0.50;0.30;;;21.30;41.70;;;;;;4191813;28;20106;-76
2021/01/07 12:10:43;;;;;;;0.63;0.35;;;21.30;41.70;;;;;;4180286;28;20466;-77
2021/01/07 12:13:16;;;;;;;0.45;0.40;;;21.30;41.80;;;;;;4180203;28;20056;-77
2021/01/07 12:15:37;;;;;;;;;;;21.30;41.80;;;;;;4180512;28;20419;-77
2021/01/07 12:18:01;;;;;;;0.80;0.38;;;21.30;41.80;;;;;;4179190;28;20493;-77
2021/01/07 12:20:22;;;;;;;0.65;0.30;;;21.30;41.70;;;;;;4179844;28;20094;-77
2021/01/07 12:22:43;;;;;;;0.40;0.30;;;21.30;41.70;;;;;;4179263;28;20056;-77
2021/01/07 12:25:07;;;;;;;1.17;0.30;;;21.40;41.80;;;;;;4179792;28;20064;-77
2021/01/07 12:27:27;;;;;;;0.60;0.30;;;21.40;41.80;;;;;;4190950;28;20419;-77
2021/01/07 12:29:47;;;;;;;1.27;0.40;;;21.40;41.80;;;;;;4196331;28;20064;-77
2021/01/07 12:32:20;;;;;;;0.70;0.30;;;21.30;41.70;;;;;;4196105;28;20556;-77
2021/01/07 12:34:59;;;;;;;0.60;0.35;;;21.40;41.70;;;;;;4195248;28;20318;-76
2021/01/07 12:37:21;;;;;;;0.50;0.40;;;21.40;41.70;;;;;;4181094;28;20056;-77
2021/01/07 12:40:06;;;;;;;0.30;0.20;;;21.40;41.70;;;;;;4196217;28;20067;-77
2021/01/07 12:42:32;;;;;;;0.98;0.30;;;21.40;41.70;;;;;;4196142;28;20118;-77
2021/01/07 12:44:54;;;;;;;0.80;0.30;;;21.30;41.60;;;;;;4195598;28;20064;-77
2021/01/07 12:47:15;;;;;;;0.60;0.30;;;21.40;41.60;;;;;;4195987;28;20140;-77
2021/01/07 12:49:36;;;;;;;0.50;0.32;;;21.40;41.70;;;;;;4196344;28;20188;-77
2021/01/07 12:51:59;;;;;;;0.52;0.30;;;21.40;41.70;;;;;;4196111;28;20652;-77
2021/01/07 12:54:20;;;;;;;1.15;0.50;;;21.40;41.60;;;;;;4180781;28;20562;-77
2021/01/07 12:56:52;;;;;;;0.52;0.35;;;21.40;41.60;;;;;;4181043;28;20103;-77
2021/01/07 12:59:23;;;;;;;0.90;0.30;;;21.40;41.60;;;;;;4195905;28;20097;-77
2021/01/07 13:01:54;;;;;;;0.40;0.20;;;21.40;41.50;;;;;;4196419;28;20192;-77
2021/01/07 13:04:44;;;;;;;0.95;0.38;;;21.40;41.70;;;;;;4195992;28;20067;-77
2021/01/07 13:07:08;;;;;;;1.10;0.30;;;21.40;41.60;;;;;;4195931;28;20457;-78
2021/01/07 13:09:35;;;;;;;0.47;0.20;;;21.40;41.50;;;;;;4195889;28;20087;-77
2021/01/07 13:11:59;;;;;;;0.63;0.40;;;21.40;41.60;;;;;;4195770;28;20059;-77
2021/01/07 13:14:19;;;;;;;0.80;0.38;;;21.40;41.50;;;;;;4196348;28;20055;-77
2021/01/07 13:16:40;;;;;;;0.90;0.38;;;21.40;41.50;;;;;;4195904;28;20091;-77
2021/01/07 13:19:00;;;;;;;1.03;0.30;;;21.40;41.50;;;;;;4195979;28;20466;-77
2021/01/07 13:21:23;;;;;;;0.20;0.20;;;21.40;41.50;;;;;;4195769;28;20075;-77
2021/01/07 13:23:43;;;;;;;0.60;0.30;;;21.40;41.50;;;;;;4194825;28;20082;-77
2021/01/07 13:26:04;;;;;;;0.98;0.40;;;21.40;41.50;;;;;;4195884;28;20063;-77
2021/01/07 13:28:25;;;;;;;0.30;0.20;;;21.50;41.50;;;;;;4179364;28;20056;-77
2021/01/07 13:30:49;;;;;;;0.20;0.20;;;21.50;41.50;;;;;;4178440;28;20052;-77
2021/01/07 13:33:11;;;;;;;0.30;0.20;;;21.50;41.50;;;;;;4179563;28;20074;-77
2021/01/07 13:35:40;;;;;;;0.70;0.40;;;21.50;41.50;;;;;;4179530;28;20065;-77
2021/01/07 13:38:05;;;;;;;0.30;0.30;;;21.50;41.50;;;;;;4182218;28;20064;-77
2021/01/07 13:40:28;;;;;;;0.40;0.30;;;21.40;41.40;;;;;;4180877;28;20083;-77
2021/01/07 13:42:52;;;;;;;0.35;0.30;;;21.40;41.40;;;;;;4182264;28;20055;-77
2021/01/07 13:45:18;;;;;;;0.63;0.30;;;21.50;41.40;;;;;;4167010;28;20094;-77
2021/01/07 13:47:39;;;;;;;0.40;0.20;;;21.50;41.50;;;;;;4182464;28;20052;-77
2021/01/07 13:50:06;;;;;;;0.32;0.30;;;21.50;41.50;;;;;;4182119;28;20502;-77
2021/01/07 13:52:31;;;;;;;0.35;0.28;;;21.50;41.50;;;;;;4166448;28;20140;-77
2021/01/07 13:54:56;;;;;;;0.75;0.30;;;21.50;41.40;;;;;;4181950;28;20087;-77
2021/01/07 13:57:17;;;;;;;0.40;0.30;;;21.50;41.40;;;;;;4182036;28;20059;-77
2021/01/07 13:59:41;;;;;;;0.57;0.40;;;21.50;41.50;;;;;;4182126;28;20411;-77
2021/01/07 14:02:06;;;;;;;0.47;0.38;;;21.50;41.40;;;;;;4180756;28;20614;-77
2021/01/07 14:04:34;;;;;;;0.45;0.38;;;21.50;41.40;;;;;;4166991;28;20124;-77
2021/01/07 14:06:58;;;;;;;0.30;0.20;;;21.50;41.40;;;;;;4182108;28;20110;-77
2021/01/07 14:09:22;;;;;;;0.28;0.28;;;21.50;41.40;;;;;;4182101;28;20055;-77
2021/01/07 14:11:47;;;;;;;0.20;0.20;;;21.50;41.40;;;;;;4182114;28;20169;-77
2021/01/07 14:14:10;;;;;;;0.45;0.30;;;21.50;41.40;;;;;;4181996;28;20486;-77
2021/01/07 14:16:34;;;;;;;0.20;0.20;;;21.50;41.30;;;;;;4181394;28;20095;-77
2021/01/07 14:19:01;;;;;;;1.15;0.30;;;21.50;41.40;;;;;;4166436;28;20071;-71
2021/01/07 14:21:22;;;;;;;0.32;0.25;;;21.50;41.40;;;;;;4181815;28;20056;-68
2021/01/07 14:23:43;;;;;;;1.27;0.40;;;21.50;41.20;;;;;;4181881;28;20098;-69
2021/01/07 14:26:07;;;;;;;1.58;0.43;;;21.50;41.10;;;;;;4181560;28;20420;-71
2021/01/07 14:29:32;;;;;;;1.35;0.60;;;21.50;40.90;;;;;;4181652;28;20236;-77
2021/01/07 14:31:55;;;;;;;0.75;0.55;;;21.40;40.20;;;;;;4195369;28;20640;-78
2021/01/07 14:34:17;;;;;;;1.13;0.57;;;21.40;40.80;;;;;;4197191;28;20140;-77
2021/01/07 14:36:41;;;;;;;0.47;0.40;;;21.40;40.80;;;;;;4183018;28;20104;-77
2021/01/07 14:39:02;;;;;;;0.55;0.50;;;21.40;40.70;;;;;;4198188;28;20534;-77
2021/01/07 14:41:22;;;;;;;2.67;0.60;;;21.40;40.60;;;;;;4197126;28;20082;-77
2021/01/07 14:43:43;;;;;;;0.70;0.50;;;21.40;40.60;;;;;;4198235;28;20103;-77
2021/01/07 14:46:06;;;;;;;0.70;0.50;;;21.40;41.10;;;;;;4197083;28;20097;-76
2021/01/07 14:48:30;;;;;;;0.93;0.60;;;21.40;40.50;;;;;;4194502;28;20109;-77
2021/01/07 14:50:56;;;;;;;0.90;0.50;;;21.40;40.50;;;;;;4178507;28;20099;-76
2021/01/07 14:53:23;;;;;;;0.95;0.65;;;21.40;40.60;;;;;;4177254;28;20063;-76
2021/01/07 14:55:48;;;;;;;0.60;0.40;;;21.40;40.50;;;;;;4164751;28;20135;-76
2021/01/07 14:58:36;;;;;;;1.33;0.75;;;21.40;40.50;;;;;;4178060;28;20056;-78
2021/01/07 15:01:06;;;;;;;1.20;0.52;;;21.40;39.90;;;;;;4177900;28;20087;-78
2021/01/07 15:03:42;;;;;;;1.30;0.80;;;21.20;39.00;;;;;;4165190;28;20072;-78
2021/01/07 15:06:20;;;;;;;1.33;0.68;;;21.00;39.20;;;;;;4164986;28;20463;-79
2021/01/07 15:08:45;;;;;;;2.10;0.70;;;20.90;39.50;;;;;;4191959;28;20162;-79
2021/01/07 15:11:14;;;;;;;1.27;0.70;;;20.80;39.70;;;;;;4181322;28;20113;-79
2021/01/07 15:13:47;;;;;;;1.65;0.70;;;20.70;39.30;;;;;;4181217;28;20091;-79
2021/01/07 15:16:16;;;;;;;0.70;0.60;;;20.70;40.00;;;;;;4181516;28;20132;-79
2021/01/07 15:18:46;;;;;;;1.70;0.88;;;20.60;40.10;;;;;;4181337;28;20087;-78
2021/01/07 15:21:09;;;;;;;1.05;0.80;;;20.60;40.10;;;;;;4194729;28;20059;-79
2021/01/07 15:24:13;;;;;;;0.80;0.60;;;20.50;40.20;;;;;;4180254;28;20483;-79
2021/01/07 15:27:04;;;;;;;1.85;0.75;;;20.50;40.40;;;;;;4181313;28;20182;-79
2021/01/07 15:30:00;;;;;;;1.13;0.52;;;20.50;40.40;;;;;;4181414;28;20063;-79
2021/01/07 15:32:30;;;;;;;1.23;0.80;;;20.50;40.40;;;;;;4177315;28;20174;-79
2021/01/07 15:34:59;;;;;;;1.45;0.85;;;20.50;40.50;;;;;;4193737;28;20051;-79
2021/01/07 15:38:00;;;;;;;1.55;0.70;;;20.40;40.50;;;;;;4180706;28;20129;-78
2021/01/07 15:41:10;;;;;;;1.77;0.60;;;20.40;40.60;;;;;;4179983;28;20075;-79
2021/01/07 15:44:07;;;;;;;1.50;0.68;;;20.40;40.70;;;;;;4167488;28;20079;-79
2021/01/07 15:47:30;;;;;;;1.10;0.65;;;20.40;40.70;;;;;;4180952;28;20167;-79
2021/01/07 15:50:04;;;;;;;0.75;0.70;;;20.40;40.70;;;;;;4177055;28;20547;-80
2021/01/07 15:53:15;;;;;;;1.42;0.70;;;20.40;40.80;;;;;;4163376;28;20178;-81
2021/01/07 15:55:49;;;;;;;0.60;0.55;;;20.40;41.00;;;;;;4179860;28;20067;-81
2021/01/07 15:58:46;;;;;;;2.55;0.80;;;20.40;41.10;;;;;;4181160;28;20771;-77
2021/01/07 16:01:13;;;;;;;1.08;0.70;;;20.40;41.10;;;;;;4180393;28;20088;-75
2021/01/07 16:03:40;;;;;;;1.40;0.65;;;20.40;41.10;;;;;;4179211;28;20055;-79
2021/01/07 16:06:12;;;;;;;1.27;0.65;;;20.40;41.70;;;;;;4177303;28;20059;-74
2021/01/07 16:08:36;;;;;;;1.23;0.57;;;20.30;41.20;;;;;;4179005;28;20106;-74
2021/01/07 16:10:57;;;;;;;1.00;0.70;;;20.40;41.40;;;;;;4178811;28;20103;-74
2021/01/07 16:13:21;;;;;;;2.65;0.90;;;20.30;41.40;;;;;;4178072;28;20173;-74
2021/01/07 16:15:41;;;;;;;1.08;0.95;;;20.30;41.40;;;;;;4176011;28;20102;-74
2021/01/07 16:18:03;;;;;;;1.40;0.70;;;20.30;41.50;;;;;;4176885;28;20060;-74
2021/01/07 16:20:26;;;;;;;1.75;0.70;;;20.30;41.40;;;;;;4177423;28;20095;-74
2021/01/07 16:22:55;;;;;;;1.30;0.90;;;20.30;41.50;;;;;;4190735;28;20048;-74
2021/01/07 16:25:32;;;;;;;0.95;0.85;;;20.30;41.50;;;;;;4179088;28;20115;-73
2021/01/07 16:28:01;;;;;;;1.17;0.85;;;20.30;41.50;;;;;;4177677;28;20059;-74
2021/01/07 16:30:24;;;;;;;1.40;1.00;;;20.30;41.50;;;;;;4179351;28;20103;-74
2021/01/07 16:32:46;;;;;;;1.10;0.70;;;20.30;41.50;;;;;;4177025;28;20060;-74
2021/01/07 16:35:08;;;;;;;1.38;0.90;;;20.30;41.50;;;;;;4178634;28;20114;-74
2021/01/07 16:37:31;;;;;;;0.90;0.65;;;20.30;41.50;;;;;;4176700;28;20573;-74
2021/01/07 16:39:57;;;;;;;1.40;1.00;;;20.30;42.00;;;;;;4177127;28;20063;-74
2021/01/07 16:42:21;;;;;;;1.30;1.00;;;20.30;41.50;;;;;;4189189;28;20927;-74
2021/01/07 16:44:41;;;;;;;1.73;0.60;;;20.30;41.50;;;;;;4176328;28;20443;-73
2021/01/07 16:47:04;;;;;;;1.63;1.17;;;20.30;41.60;;;;;;4176798;28;20059;-73
2021/01/07 16:49:24;;;;;;;0.90;0.80;;;20.30;41.60;;;;;;4179323;28;20152;-73
2021/01/07 16:51:44;;;;;;;2.00;0.90;;;20.30;41.60;;;;;;4194093;28;20418;-74
2021/01/07 16:54:07;;;;;;;1.45;0.85;;;20.30;41.60;;;;;;4193600;28;20052;-74
2021/01/07 16:56:30;;;;;;;1.40;1.10;;;20.30;41.60;;;;;;4194057;28;20055;-73
2021/01/07 16:58:51;;;;;;;1.13;0.77;;;20.30;41.60;;;;;;4194096;28;20123;-73
2021/01/07 17:01:13;;;;;;;0.90;0.70;;;20.30;41.60;;;;;;4194564;28;20087;-73
2021/01/07 17:03:33;;;;;;;1.10;0.80;;;20.30;41.60;;;;;;4194303;28;20090;-71
2021/01/07 17:05:53;;;;;;;1.43;0.90;;;20.30;41.70;;;;;;4193570;28;20093;-72
2021/01/07 17:08:16;;;;;;;1.00;0.80;;;20.40;41.80;;;;;;4195274;28;20306;-72
2021/01/07 17:10:38;;;;;;;0.90;0.80;;;20.40;41.70;;;;;;4194920;28;20553;-72
2021/01/07 17:12:59;;;;;;;1.15;1.05;;;20.50;41.70;;;;;;4197076;28;20175;-71
2021/01/07 17:15:20;;;;;;;2.90;1.75;;;20.40;41.80;;;;;;4198150;28;20083;-72
2021/01/07 17:18:49;;;;;;;1.75;1.40;;;20.50;41.80;;;;;;4198069;28;20473;-72
2021/01/07 17:21:16;;;;;;;1.52;1.20;;;20.50;41.60;;;;;;4193194;28;21582;-68
2021/01/07 17:23:37;;;;;;;2.45;1.10;;;20.60;41.10;;;;;;4195161;28;20182;-79
2021/01/07 17:25:57;;;;;;;1.80;0.93;;;20.80;41.30;;;;;;4196507;28;20051;-74
2021/01/07 17:28:17;;;;;;;1.70;1.20;;;20.90;41.20;;;;;;4197075;28;20082;-76
2021/01/07 17:30:39;;;;;;;1.10;1.00;;;21.00;41.40;;;;;;4145747;28;20352;-66
2021/01/07 17:32:59;;;;;;;2.70;1.20;;;21.00;41.40;;;;;;4196560;28;20129;-68
2021/01/07 17:35:22;;;;;;;1.45;0.95;;;21.10;41.60;;;;;;4197003;28;20063;-80
2021/01/07 17:37:45;;;;;;;2.83;0.80;;;21.10;41.30;;;;;;4196968;28;20056;-84
2021/01/07 17:40:10;;;;;;;4.43;1.40;;;21.20;41.40;;;;;;4194989;28;20082;-71
2021/01/07 17:42:33;;;;;;;2.63;1.05;;;21.30;41.50;;;;;;4179412;28;20112;-73
2021/01/07 17:44:54;;;;;;;2.10;1.10;;;21.30;41.40;;;;;;4195151;28;20052;-71
2021/01/07 17:47:15;;;;;;;1.70;1.00;;;21.30;41.50;;;;;;4194831;28;20090;-73
2021/01/07 17:49:36;;;;;;;2.45;0.77;;;21.40;41.50;;;;;;4178054;28;20568;-73
2021/01/07 17:51:57;;;;;;;1.85;0.90;;;21.40;41.50;;;;;;4177727;28;20060;-81
2021/01/07 17:54:17;;;;;;;2.20;1.10;;;21.50;41.60;;;;;;4192463;28;20134;-76
2021/01/07 17:56:40;;;;;;;1.10;0.90;;;21.50;41.60;;;;;;4179076;28;20394;-75
2021/01/07 17:59:01;;;;;;;2.28;1.08;;;21.50;41.60;;;;;;4179346;28;20144;-70
2021/01/07 18:01:30;;;;;;;1.17;0.82;;;21.50;42.00;;;;;;4177453;28;20052;-69
2021/01/07 18:03:54;;;;;;;1.27;0.95;;;21.60;41.80;;;;;;4178533;28;20091;-69
2021/01/07 18:06:14;;;;;;;1.02;0.75;;;21.50;41.70;;;;;;4177116;28;20060;-68
2021/01/07 18:08:35;;;;;;;3.85;1.05;;;21.50;41.70;;;;;;4177803;28;20122;-68
2021/01/07 18:10:58;;;;;;;2.15;0.90;;;21.50;41.70;;;;;;4177113;28;20056;-69
2021/01/07 18:13:21;;;;;;;1.98;1.08;;;21.50;41.70;;;;;;4178845;28;20059;-68
2021/01/07 18:15:44;;;;;;;2.53;0.90;;;21.50;41.60;;;;;;4179449;28;20095;-68
2021/01/07 18:18:07;;;;;;;1.02;0.90;;;21.50;41.50;;;;;;4177794;28;20060;-69
2021/01/07 18:20:28;;;;;;;0.90;0.85;;;21.50;41.50;;;;;;4178668;28;20060;-68
2021/01/07 18:22:51;;;;;;;1.60;1.13;;;21.40;41.30;;;;;;4178430;28;20106;-68
2021/01/07 18:25:12;;;;;;;1.27;1.05;;;21.40;41.30;;;;;;4175430;28;20067;-68
2021/01/07 18:27:32;;;;;;;1.95;1.10;;;21.40;41.30;;;;;;4177418;28;20127;-69
2021/01/07 18:30:00;;;;;;;2.03;0.80;;;21.40;41.40;;;;;;4178470;28;20055;-69
2021/01/07 18:32:23;;;;;;;2.65;1.00;;;21.40;41.50;;;;;;4178986;28;20511;-69
2021/01/07 18:34:44;;;;;;;1.90;0.90;;;21.40;41.40;;;;;;4179208;28;20051;-69
2021/01/07 18:37:05;;;;;;;1.85;0.90;;;21.40;41.40;;;;;;4178688;28;20808;-69
2021/01/07 18:39:25;;;;;;;1.08;0.98;;;21.30;41.30;;;;;;4179502;28;20140;-71
2021/01/07 18:41:45;;;;;;;3.17;1.30;;;21.30;41.30;;;;;;4180158;28;20116;-67
2021/01/07 18:44:08;;;;;;;1.73;1.00;;;21.30;41.40;;;;;;4178508;28;20507;-68
2021/01/07 18:46:29;;;;;;;2.85;0.80;;;21.30;41.60;;;;;;4190568;28;20620;-66
2021/01/07 18:48:50;;;;;;;3.15;1.08;;;21.30;41.60;;;;;;4190300;28;20106;-68
2021/01/07 18:51:11;;;;;;;3.67;0.97;;;21.30;41.90;;;;;;4193040;28;20110;-66
2021/01/07 18:53:35;;;;;;;3.05;1.20;;;21.20;41.90;;;;;;4179654;28;21214;-66
2021/01/07 18:55:55;;;;;;;1.20;1.05;;;21.20;41.70;;;;;;4194769;28;20059;-66
2021/01/07 18:58:18;;;;;;;2.13;1.25;;;21.10;41.80;;;;;;4195152;28;20133;-66
2021/01/07 19:00:38;;;;;;;3.10;1.42;;;21.00;41.90;;;;;;4180921;28;20424;-66
2021/01/07 19:02:58;;;;;;;1.93;1.27;;;21.00;42.40;;;;;;4196110;28;20060;-65
2021/01/07 19:05:22;;;;;;;1.77;0.90;;;21.00;42.00;;;;;;4196868;28;20277;-65
2021/01/07 19:07:42;;;;;;;3.47;1.13;;;20.90;42.30;;;;;;4196574;28;20067;-66
2021/01/07 19:10:06;;;;;;;4.07;1.40;;;20.90;42.10;;;;;;4195251;28;20056;-65
2021/01/07 19:12:30;;;;;;;3.10;1.20;;;20.80;42.30;;;;;;4194593;28;20420;-65
2021/01/07 19:14:51;;;;;;;2.00;1.33;;;20.90;42.30;;;;;;4191170;28;20525;-62
2021/01/07 19:17:11;;;;;;;3.92;1.90;;;20.80;42.30;;;;;;4194658;28;20121;-67
2021/01/07 19:19:32;;;;;;;3.83;2.33;;;20.80;42.30;;;;;;4194968;28;20067;-66
2021/01/07 19:21:55;;;;;;;6.22;2.30;;;20.80;42.50;;;;;;4195491;28;20040;-64
2021/01/07 19:24:18;;;;;;;9.50;3.45;;;20.80;43.70;;;;;;4194593;28;20082;-66
2021/01/07 19:26:42;;;;;;;7.88;2.85;;;20.90;43.50;;;;;;4195057;28;20474;-69
2021/01/07 19:29:06;;;;;;;;;;;21.00;42.20;;;;;;4195339;28;20132;-66
2021/01/07 19:31:31;;;;;;;9.63;3.17;;;21.00;42.30;;;;;;4195478;28;19930;-65
2021/01/07 19:33:55;;;;;;;6.32;3.40;;;20.90;42.20;;;;;;4202200;28;20055;-65
2021/01/07 19:36:17;;;;;;;5.45;3.42;;;20.90;42.20;;;;;;4194024;28;20060;-65
2021/01/07 19:38:38;;;;;;;4.93;3.35;;;20.80;42.20;;;;;;4194302;28;20503;-65
2021/01/07 19:40:58;;;;;;;9.75;3.75;;;20.80;42.30;;;;;;4193191;28;20083;-65
2021/01/07 19:43:22;;;;;;;8.35;3.85;;;20.80;42.50;;;;;;4193076;28;20136;-67
2021/01/07 19:45:45;;;;;;;6.93;3.63;;;20.70;42.20;;;;;;4190978;28;20867;-65
2021/01/07 19:48:06;;;;;;;8.03;2.83;;;20.70;42.30;;;;;;4193052;28;20060;-66
2021/01/07 19:50:28;;;;;;;6.60;3.95;;;20.70;42.40;;;;;;4194781;28;20130;-70
2021/01/07 19:52:49;;;;;;;9.40;4.05;;;20.70;42.40;;;;;;4193679;28;20063;-68
2021/01/07 19:55:11;;;;;;;8.27;3.80;;;20.70;42.60;;;;;;4180728;28;20095;-64
2021/01/07 19:57:38;;;;;;;11.45;4.03;;;20.70;42.60;;;;;;4193224;28;20063;-68
2021/01/07 19:59:59;;;;;;;11.43;3.95;;;20.60;42.60;;;;;;4194400;28;20078;-67
2021/01/07 20:02:19;;;;;;;;;;;20.60;42.80;;;;;;4165306;28;20056;-78
2021/01/07 20:04:40;;;;;;;8.77;7.88;;;20.50;36.90;;;;;;4178298;28;19931;-76
2021/01/07 20:07:00;;;;;;;9.88;8.27;;;19.80;34.40;;;;;;4178458;28;20064;-73
2021/01/07 20:09:23;;;;;;;9.23;8.40;;;18.90;34.80;;;;;;4179170;28;20416;-73
2021/01/07 20:11:45;;;;;;;9.73;8.73;;;18.30;35.50;;;;;;4179201;28;20086;-73
2021/01/07 20:14:08;;;;;;;9.60;8.68;;;17.90;35.70;;;;;;4179441;28;20503;-74
2021/01/07 20:16:36;;;;;;;8.77;7.88;;;17.50;36.20;;;;;;4190173;28;20183;-75
